sensor_id;sensor_type;location;lat;lon;timestamp;temperature;humidity
5278;DHT22;2662;51.194;6.614;2024-02-28T00:00:42;2.70;99.90
5278;DHT22;2662;51.194;6.614;2024-02-28T00:03:15;2.70;99.90
5278;DHT22;2662;51.194;6.614;2024-02-28T00:05:43;2.60;99.90
5278;DHT22;2662;51.194;6.614;2024-02-28T00:08:11;2.60;99.90
5278;DHT22;2662;51.194;6.614;2024-02-28T00:10:38;2.50;99.90
5278;DHT22;2662;51.194;6.614;2024-02-28T00:13:05;2.50;99.90
5278;DHT22;2662;51.194;6.614;2024-02-28T00:15:33;2.50;99.90
5278;DHT22;2662;51.194;6.614;2024-02-28T00:18:00;2.40;99.90
5278;DHT22;2662;51.194;6.614;2024-02-28T00:20:29;2.40;99.90
5278;DHT22;2662;51.194;6.614;2024-02-28T00:22:57;2.40;99.90
5278;DHT22;2662;51.194;6.614;2024-02-28T00:25:23;2.40;99.90
5278;DHT22;2662;51.194;6.614;2024-02-28T00:27:51;2.40;99.90
5278;DHT22;2662;51.194;6.614;2024-02-28T00:30:19;2.40;99.90
5278;DHT22;2662;51.194;6.614;2024-02-28T00:32:54;2.40;99.90
5278;DHT22;2662;51.194;6.614;2024-02-28T00:35:21;2.30;99.90
5278;DHT22;2662;51.194;6.614;2024-02-28T00:37:49;2.30;99.90
5278;DHT22;2662;51.194;6.614;2024-02-28T00:40:18;2.30;99.90
5278;DHT22;2662;51.194;6.614;2024-02-28T00:42:44;2.30;99.90
5278;DHT22;2662;51.194;6.614;2024-02-28T00:45:12;2.20;99.90
5278;DHT22;2662;51.194;6.614;2024-02-28T00:47:38;2.20;99.90
5278;DHT22;2662;51.194;6.614;2024-02-28T00:50:08;2.20;99.90
5278;DHT22;2662;51.194;6.614;2024-02-28T00:52:38;2.20;99.90
5278;DHT22;2662;51.194;6.614;2024-02-28T00:55:07;2.10;99.90
5278;DHT22;2662;51.194;6.614;2024-02-28T00:57:37;2.10;99.90
5278;DHT22;2662;51.194;6.614;2024-02-28T01:00:04;2.00;99.90
5278;DHT22;2662;51.194;6.614;2024-02-28T01:02:32;2.00;99.90
5278;DHT22;2662;51.194;6.614;2024-02-28T01:04:59;1.90;99.90
5278;DHT22;2662;51.194;6.614;2024-02-28T01:07:27;1.90;99.90
5278;DHT22;2662;51.194;6.614;2024-02-28T01:09:54;2.00;99.90
5278;DHT22;2662;51.194;6.614;2024-02-28T01:12:24;1.90;99.90
5278;DHT22;2662;51.194;6.614;2024-02-28T01:14:51;1.90;99.90
5278;DHT22;2662;51.194;6.614;2024-02-28T01:17:18;1.90;99.90
5278;DHT22;2662;51.194;6.614;2024-02-28T01:19:46;1.90;99.90
5278;DHT22;2662;51.194;6.614;2024-02-28T01:22:13;1.90;99.90
5278;DHT22;2662;51.194;6.614;2024-02-28T01:24:39;1.90;99.90
5278;DHT22;2662;51.194;6.614;2024-02-28T01:27:07;1.90;99.90
5278;DHT22;2662;51.194;6.614;2024-02-28T01:29:35;1.90;99.90
5278;DHT22;2662;51.194;6.614;2024-02-28T01:32:02;1.90;99.90
5278;DHT22;2662;51.194;6.614;2024-02-28T01:34:30;1.90;99.90
5278;DHT22;2662;51.194;6.614;2024-02-28T01:36:57;1.90;99.90
5278;DHT22;2662;51.194;6.614;2024-02-28T01:39:27;1.90;99.90
5278;DHT22;2662;51.194;6.614;2024-02-28T01:41:54;1.90;99.90
5278;DHT22;2662;51.194;6.614;2024-02-28T01:44:22;1.90;99.90
5278;DHT22;2662;51.194;6.614;2024-02-28T01:46:51;1.90;99.90
5278;DHT22;2662;51.194;6.614;2024-02-28T01:49:22;1.80;99.90
5278;DHT22;2662;51.194;6.614;2024-02-28T01:51:58;1.80;99.90
5278;DHT22;2662;51.194;6.614;2024-02-28T01:54:27;1.80;99.90
5278;DHT22;2662;51.194;6.614;2024-02-28T01:56:56;1.80;99.90
5278;DHT22;2662;51.194;6.614;2024-02-28T01:59:23;1.80;99.90
5278;DHT22;2662;51.194;6.614;2024-02-28T02:01:54;1.90;99.90
5278;DHT22;2662;51.194;6.614;2024-02-28T02:04:26;1.90;99.90
5278;DHT22;2662;51.194;6.614;2024-02-28T02:06:53;1.90;99.90
5278;DHT22;2662;51.194;6.614;2024-02-28T02:09:20;1.80;99.90
5278;DHT22;2662;51.194;6.614;2024-02-28T02:11:48;1.80;99.90
5278;DHT22;2662;51.194;6.614;2024-02-28T02:14:15;1.70;99.90
5278;DHT22;2662;51.194;6.614;2024-02-28T02:16:42;1.70;99.90
5278;DHT22;2662;51.194;6.614;2024-02-28T02:19:13;1.70;99.90
5278;DHT22;2662;51.194;6.614;2024-02-28T02:21:50;1.70;99.90
5278;DHT22;2662;51.194;6.614;2024-02-28T02:24:20;1.80;99.90
5278;DHT22;2662;51.194;6.614;2024-02-28T02:26:47;1.90;99.90
5278;DHT22;2662;51.194;6.614;2024-02-28T02:29:17;2.10;99.90
5278;DHT22;2662;51.194;6.614;2024-02-28T02:31:44;2.20;99.90
5278;DHT22;2662;51.194;6.614;2024-02-28T02:34:12;2.30;99.90
5278;DHT22;2662;51.194;6.614;2024-02-28T02:36:39;2.50;99.90
5278;DHT22;2662;51.194;6.614;2024-02-28T02:39:05;2.60;99.90
5278;DHT22;2662;51.194;6.614;2024-02-28T02:41:35;2.70;99.90
5278;DHT22;2662;51.194;6.614;2024-02-28T02:44:02;2.80;99.90
5278;DHT22;2662;51.194;6.614;2024-02-28T02:46:29;3.00;99.90
5278;DHT22;2662;51.194;6.614;2024-02-28T02:48:56;3.10;99.90
5278;DHT22;2662;51.194;6.614;2024-02-28T02:51:23;3.30;99.90
5278;DHT22;2662;51.194;6.614;2024-02-28T02:53:52;3.40;99.90
5278;DHT22;2662;51.194;6.614;2024-02-28T02:56:20;3.60;99.90
5278;DHT22;2662;51.194;6.614;2024-02-28T02:58:48;3.70;99.90
5278;DHT22;2662;51.194;6.614;2024-02-28T03:01:15;3.80;99.90
5278;DHT22;2662;51.194;6.614;2024-02-28T03:03:42;3.90;99.90
5278;DHT22;2662;51.194;6.614;2024-02-28T03:06:09;3.90;99.90
5278;DHT22;2662;51.194;6.614;2024-02-28T03:08:38;4.00;99.90
5278;DHT22;2662;51.194;6.614;2024-02-28T03:11:05;4.00;99.90
5278;DHT22;2662;51.194;6.614;2024-02-28T03:13:34;4.10;99.90
5278;DHT22;2662;51.194;6.614;2024-02-28T03:16:05;4.10;99.90
5278;DHT22;2662;51.194;6.614;2024-02-28T03:18:32;4.20;99.90
5278;DHT22;2662;51.194;6.614;2024-02-28T03:20:59;4.30;99.90
5278;DHT22;2662;51.194;6.614;2024-02-28T03:23:27;4.30;99.90
5278;DHT22;2662;51.194;6.614;2024-02-28T03:25:54;4.40;99.90
5278;DHT22;2662;51.194;6.614;2024-02-28T03:28:21;4.40;99.90
5278;DHT22;2662;51.194;6.614;2024-02-28T03:30:48;4.50;99.90
5278;DHT22;2662;51.194;6.614;2024-02-28T03:33:17;4.50;99.90
5278;DHT22;2662;51.194;6.614;2024-02-28T03:35:43;4.60;99.90
5278;DHT22;2662;51.194;6.614;2024-02-28T03:38:10;4.50;99.90
5278;DHT22;2662;51.194;6.614;2024-02-28T03:40:37;4.50;99.90
5278;DHT22;2662;51.194;6.614;2024-02-28T03:43:04;4.40;99.90
5278;DHT22;2662;51.194;6.614;2024-02-28T03:45:36;4.50;99.90
5278;DHT22;2662;51.194;6.614;2024-02-28T03:48:05;4.50;99.90
5278;DHT22;2662;51.194;6.614;2024-02-28T03:50:33;4.50;99.90
5278;DHT22;2662;51.194;6.614;2024-02-28T03:53:00;4.60;99.90
5278;DHT22;2662;51.194;6.614;2024-02-28T03:55:27;4.60;99.90
5278;DHT22;2662;51.194;6.614;2024-02-28T03:57:54;4.60;99.90
5278;DHT22;2662;51.194;6.614;2024-02-28T04:00:21;4.70;99.90
5278;DHT22;2662;51.194;6.614;2024-02-28T04:02:48;4.70;99.90
5278;DHT22;2662;51.194;6.614;2024-02-28T04:05:15;4.70;99.90
5278;DHT22;2662;51.194;6.614;2024-02-28T04:07:44;4.70;99.90
5278;DHT22;2662;51.194;6.614;2024-02-28T04:10:11;4.70;99.90
5278;DHT22;2662;51.194;6.614;2024-02-28T04:12:38;4.60;99.90
5278;DHT22;2662;51.194;6.614;2024-02-28T04:15:06;4.60;99.90
5278;DHT22;2662;51.194;6.614;2024-02-28T04:17:33;4.40;99.90
5278;DHT22;2662;51.194;6.614;2024-02-28T04:20:00;4.30;99.90
5278;DHT22;2662;51.194;6.614;2024-02-28T04:22:30;4.30;99.90
5278;DHT22;2662;51.194;6.614;2024-02-28T04:25:00;4.20;99.90
5278;DHT22;2662;51.194;6.614;2024-02-28T04:27:27;4.20;99.90
5278;DHT22;2662;51.194;6.614;2024-02-28T04:29:56;4.20;99.90
5278;DHT22;2662;51.194;6.614;2024-02-28T04:32:23;4.20;99.90
5278;DHT22;2662;51.194;6.614;2024-02-28T04:34:51;4.10;99.90
5278;DHT22;2662;51.194;6.614;2024-02-28T04:37:19;4.10;99.90
5278;DHT22;2662;51.194;6.614;2024-02-28T04:39:45;4.10;99.90
5278;DHT22;2662;51.194;6.614;2024-02-28T04:42:16;4.10;99.90
5278;DHT22;2662;51.194;6.614;2024-02-28T04:44:43;4.20;99.90
5278;DHT22;2662;51.194;6.614;2024-02-28T04:47:10;4.20;99.90
5278;DHT22;2662;51.194;6.614;2024-02-28T04:49:37;4.20;99.90
5278;DHT22;2662;51.194;6.614;2024-02-28T04:52:05;4.20;99.90
5278;DHT22;2662;51.194;6.614;2024-02-28T04:54:33;4.20;99.90
5278;DHT22;2662;51.194;6.614;2024-02-28T04:57:00;4.30;99.90
5278;DHT22;2662;51.194;6.614;2024-02-28T04:59:29;4.30;99.90
5278;DHT22;2662;51.194;6.614;2024-02-28T05:01:57;4.30;99.90
5278;DHT22;2662;51.194;6.614;2024-02-28T05:04:24;4.30;99.90
5278;DHT22;2662;51.194;6.614;2024-02-28T05:06:51;4.40;99.90
5278;DHT22;2662;51.194;6.614;2024-02-28T05:09:18;4.50;99.90
5278;DHT22;2662;51.194;6.614;2024-02-28T05:11:44;4.50;99.90
5278;DHT22;2662;51.194;6.614;2024-02-28T05:14:14;4.60;99.90
5278;DHT22;2662;51.194;6.614;2024-02-28T05:16:44;4.60;99.90
5278;DHT22;2662;51.194;6.614;2024-02-28T05:19:13;4.70;99.90
5278;DHT22;2662;51.194;6.614;2024-02-28T05:21:44;4.70;99.90
5278;DHT22;2662;51.194;6.614;2024-02-28T05:24:11;4.70;99.90
5278;DHT22;2662;51.194;6.614;2024-02-28T05:26:39;4.80;99.90
5278;DHT22;2662;51.194;6.614;2024-02-28T05:29:06;4.80;99.90
5278;DHT22;2662;51.194;6.614;2024-02-28T05:31:33;4.80;99.90
5278;DHT22;2662;51.194;6.614;2024-02-28T05:34:03;4.90;99.90
5278;DHT22;2662;51.194;6.614;2024-02-28T05:36:30;4.90;99.90
5278;DHT22;2662;51.194;6.614;2024-02-28T05:39:00;4.90;99.90
5278;DHT22;2662;51.194;6.614;2024-02-28T05:41:28;4.90;99.90
5278;DHT22;2662;51.194;6.614;2024-02-28T05:43:55;5.00;99.90
5278;DHT22;2662;51.194;6.614;2024-02-28T05:46:22;5.00;99.90
5278;DHT22;2662;51.194;6.614;2024-02-28T05:48:49;5.00;99.90
5278;DHT22;2662;51.194;6.614;2024-02-28T05:51:18;5.00;99.90
5278;DHT22;2662;51.194;6.614;2024-02-28T05:53:45;5.00;99.90
5278;DHT22;2662;51.194;6.614;2024-02-28T05:56:12;5.00;99.90
5278;DHT22;2662;51.194;6.614;2024-02-28T05:58:40;4.90;99.90
5278;DHT22;2662;51.194;6.614;2024-02-28T06:01:08;5.00;99.90
5278;DHT22;2662;51.194;6.614;2024-02-28T06:03:35;4.90;99.90
5278;DHT22;2662;51.194;6.614;2024-02-28T06:06:02;4.90;99.90
5278;DHT22;2662;51.194;6.614;2024-02-28T06:08:32;4.80;99.90
5278;DHT22;2662;51.194;6.614;2024-02-28T06:11:00;4.80;99.90
5278;DHT22;2662;51.194;6.614;2024-02-28T06:13:27;4.90;99.90
5278;DHT22;2662;51.194;6.614;2024-02-28T06:15:54;4.90;99.90
5278;DHT22;2662;51.194;6.614;2024-02-28T06:18:21;5.00;99.90
5278;DHT22;2662;51.194;6.614;2024-02-28T06:20:52;5.00;99.90
5278;DHT22;2662;51.194;6.614;2024-02-28T06:23:20;5.00;99.90
5278;DHT22;2662;51.194;6.614;2024-02-28T06:25:48;5.00;99.90
5278;DHT22;2662;51.194;6.614;2024-02-28T06:28:15;5.00;99.90
5278;DHT22;2662;51.194;6.614;2024-02-28T06:30:43;5.00;99.90
5278;DHT22;2662;51.194;6.614;2024-02-28T06:33:11;5.00;99.90
5278;DHT22;2662;51.194;6.614;2024-02-28T06:35:38;5.00;99.90
5278;DHT22;2662;51.194;6.614;2024-02-28T06:38:05;5.10;99.90
5278;DHT22;2662;51.194;6.614;2024-02-28T06:40:32;5.10;99.90
5278;DHT22;2662;51.194;6.614;2024-02-28T06:43:03;5.10;99.90
5278;DHT22;2662;51.194;6.614;2024-02-28T06:45:30;5.10;99.90
5278;DHT22;2662;51.194;6.614;2024-02-28T06:47:57;5.10;99.90
5278;DHT22;2662;51.194;6.614;2024-02-28T06:50:25;5.10;99.90
5278;DHT22;2662;51.194;6.614;2024-02-28T06:52:51;5.20;99.90
5278;DHT22;2662;51.194;6.614;2024-02-28T06:55:19;5.30;99.90
5278;DHT22;2662;51.194;6.614;2024-02-28T06:57:46;5.30;99.90
5278;DHT22;2662;51.194;6.614;2024-02-28T07:00:17;5.30;99.90
5278;DHT22;2662;51.194;6.614;2024-02-28T07:02:45;5.30;99.90
5278;DHT22;2662;51.194;6.614;2024-02-28T07:05:12;5.20;99.90
5278;DHT22;2662;51.194;6.614;2024-02-28T07:07:39;5.20;99.90
5278;DHT22;2662;51.194;6.614;2024-02-28T07:10:07;5.30;99.90
5278;DHT22;2662;51.194;6.614;2024-02-28T07:12:34;5.30;99.90
5278;DHT22;2662;51.194;6.614;2024-02-28T07:15:01;5.40;99.90
5278;DHT22;2662;51.194;6.614;2024-02-28T07:17:30;5.40;99.90
5278;DHT22;2662;51.194;6.614;2024-02-28T07:19:57;5.40;99.90
5278;DHT22;2662;51.194;6.614;2024-02-28T07:22:24;5.50;99.90
5278;DHT22;2662;51.194;6.614;2024-02-28T07:24:51;5.50;99.90
5278;DHT22;2662;51.194;6.614;2024-02-28T07:27:18;5.60;99.90
5278;DHT22;2662;51.194;6.614;2024-02-28T07:29:45;5.60;99.90
5278;DHT22;2662;51.194;6.614;2024-02-28T07:32:13;5.60;99.90
5278;DHT22;2662;51.194;6.614;2024-02-28T07:34:41;5.70;99.90
5278;DHT22;2662;51.194;6.614;2024-02-28T07:37:08;5.70;99.90
5278;DHT22;2662;51.194;6.614;2024-02-28T07:39:37;5.70;99.90
5278;DHT22;2662;51.194;6.614;2024-02-28T07:42:04;5.70;99.90
5278;DHT22;2662;51.194;6.614;2024-02-28T07:44:31;5.80;99.90
5278;DHT22;2662;51.194;6.614;2024-02-28T07:46:58;5.90;99.90
5278;DHT22;2662;51.194;6.614;2024-02-28T07:49:25;6.00;99.90
5278;DHT22;2662;51.194;6.614;2024-02-28T07:51:54;6.10;99.90
5278;DHT22;2662;51.194;6.614;2024-02-28T07:54:21;6.30;99.90
5278;DHT22;2662;51.194;6.614;2024-02-28T07:56:48;6.40;99.90
5278;DHT22;2662;51.194;6.614;2024-02-28T07:59:17;6.40;99.90
5278;DHT22;2662;51.194;6.614;2024-02-28T08:01:44;6.50;99.90
5278;DHT22;2662;51.194;6.614;2024-02-28T08:04:11;6.50;99.90
5278;DHT22;2662;51.194;6.614;2024-02-28T08:06:40;6.60;99.90
5278;DHT22;2662;51.194;6.614;2024-02-28T08:09:08;6.50;99.90
5278;DHT22;2662;51.194;6.614;2024-02-28T08:11:35;6.50;99.90
5278;DHT22;2662;51.194;6.614;2024-02-28T08:14:03;6.50;99.90
5278;DHT22;2662;51.194;6.614;2024-02-28T08:16:30;6.60;99.90
5278;DHT22;2662;51.194;6.614;2024-02-28T08:18:57;6.60;99.90
5278;DHT22;2662;51.194;6.614;2024-02-28T08:21:24;6.60;99.90
5278;DHT22;2662;51.194;6.614;2024-02-28T08:23:52;6.60;99.90
5278;DHT22;2662;51.194;6.614;2024-02-28T08:26:21;6.50;99.90
5278;DHT22;2662;51.194;6.614;2024-02-28T08:28:48;6.50;99.90
5278;DHT22;2662;51.194;6.614;2024-02-28T08:31:15;6.50;99.90
5278;DHT22;2662;51.194;6.614;2024-02-28T08:33:42;6.50;99.90
5278;DHT22;2662;51.194;6.614;2024-02-28T08:36:09;6.50;99.90
5278;DHT22;2662;51.194;6.614;2024-02-28T08:38:36;6.70;99.90
5278;DHT22;2662;51.194;6.614;2024-02-28T08:41:04;6.70;99.90
5278;DHT22;2662;51.194;6.614;2024-02-28T08:43:33;6.70;99.90
5278;DHT22;2662;51.194;6.614;2024-02-28T08:46:04;6.70;99.90
5278;DHT22;2662;51.194;6.614;2024-02-28T08:48:33;6.80;99.90
5278;DHT22;2662;51.194;6.614;2024-02-28T08:51:00;6.80;99.90
5278;DHT22;2662;51.194;6.614;2024-02-28T08:53:28;6.70;99.90
5278;DHT22;2662;51.194;6.614;2024-02-28T08:55:55;6.70;99.90
5278;DHT22;2662;51.194;6.614;2024-02-28T08:58:22;6.70;99.90
5278;DHT22;2662;51.194;6.614;2024-02-28T09:00:53;6.70;99.90
5278;DHT22;2662;51.194;6.614;2024-02-28T09:03:22;6.80;99.90
5278;DHT22;2662;51.194;6.614;2024-02-28T09:05:49;6.80;99.90
5278;DHT22;2662;51.194;6.614;2024-02-28T09:08:16;6.90;99.90
5278;DHT22;2662;51.194;6.614;2024-02-28T09:10:43;6.90;99.90
5278;DHT22;2662;51.194;6.614;2024-02-28T09:13:11;7.00;99.90
5278;DHT22;2662;51.194;6.614;2024-02-28T09:15:38;6.90;99.90
5278;DHT22;2662;51.194;6.614;2024-02-28T09:18:07;6.80;99.90
5278;DHT22;2662;51.194;6.614;2024-02-28T09:20:34;6.80;99.90
5278;DHT22;2662;51.194;6.614;2024-02-28T09:23:01;6.70;99.90
5278;DHT22;2662;51.194;6.614;2024-02-28T09:25:28;6.80;99.90
5278;DHT22;2662;51.194;6.614;2024-02-28T09:27:56;6.80;99.90
5278;DHT22;2662;51.194;6.614;2024-02-28T09:30:22;7.00;99.90
5278;DHT22;2662;51.194;6.614;2024-02-28T09:32:49;7.20;99.90
5278;DHT22;2662;51.194;6.614;2024-02-28T09:35:17;7.40;99.90
5278;DHT22;2662;51.194;6.614;2024-02-28T09:37:44;7.60;99.90
5278;DHT22;2662;51.194;6.614;2024-02-28T09:40:12;7.70;99.90
5278;DHT22;2662;51.194;6.614;2024-02-28T09:42:40;7.80;99.90
5278;DHT22;2662;51.194;6.614;2024-02-28T09:45:10;7.90;99.90
5278;DHT22;2662;51.194;6.614;2024-02-28T09:47:39;8.10;99.90
5278;DHT22;2662;51.194;6.614;2024-02-28T09:50:07;8.10;99.90
5278;DHT22;2662;51.194;6.614;2024-02-28T09:52:36;8.20;99.90
5278;DHT22;2662;51.194;6.614;2024-02-28T09:55:04;8.20;99.90
5278;DHT22;2662;51.194;6.614;2024-02-28T09:57:32;8.20;99.90
5278;DHT22;2662;51.194;6.614;2024-02-28T10:00:01;8.30;99.90
5278;DHT22;2662;51.194;6.614;2024-02-28T10:02:29;8.40;99.90
5278;DHT22;2662;51.194;6.614;2024-02-28T10:04:56;8.50;99.90
5278;DHT22;2662;51.194;6.614;2024-02-28T10:07:24;8.70;99.90
5278;DHT22;2662;51.194;6.614;2024-02-28T10:09:52;8.90;99.90
5278;DHT22;2662;51.194;6.614;2024-02-28T10:12:20;9.00;99.90
5278;DHT22;2662;51.194;6.614;2024-02-28T10:14:50;9.10;99.90
5278;DHT22;2662;51.194;6.614;2024-02-28T10:17:18;9.10;99.90
5278;DHT22;2662;51.194;6.614;2024-02-28T10:19:45;9.20;99.90
5278;DHT22;2662;51.194;6.614;2024-02-28T10:22:13;9.30;99.90
5278;DHT22;2662;51.194;6.614;2024-02-28T10:24:41;9.50;99.90
5278;DHT22;2662;51.194;6.614;2024-02-28T10:27:10;9.60;99.90
5278;DHT22;2662;51.194;6.614;2024-02-28T10:29:38;9.80;99.90
5278;DHT22;2662;51.194;6.614;2024-02-28T10:32:06;9.90;99.90
5278;DHT22;2662;51.194;6.614;2024-02-28T10:34:34;10.00;99.90
5278;DHT22;2662;51.194;6.614;2024-02-28T10:37:01;10.10;99.90
5278;DHT22;2662;51.194;6.614;2024-02-28T10:39:33;10.20;99.90
5278;DHT22;2662;51.194;6.614;2024-02-28T10:42:02;10.10;99.90
5278;DHT22;2662;51.194;6.614;2024-02-28T10:44:32;10.30;99.90
5278;DHT22;2662;51.194;6.614;2024-02-28T10:47:01;10.60;99.90
5278;DHT22;2662;51.194;6.614;2024-02-28T10:49:28;10.50;99.90
5278;DHT22;2662;51.194;6.614;2024-02-28T10:51:57;10.50;99.90
5278;DHT22;2662;51.194;6.614;2024-02-28T10:54:29;10.60;99.90
5278;DHT22;2662;51.194;6.614;2024-02-28T10:56:59;10.60;99.90
5278;DHT22;2662;51.194;6.614;2024-02-28T10:59:33;10.70;99.90
5278;DHT22;2662;51.194;6.614;2024-02-28T11:02:01;10.80;99.90
5278;DHT22;2662;51.194;6.614;2024-02-28T11:04:31;10.90;99.90
5278;DHT22;2662;51.194;6.614;2024-02-28T11:07:00;11.00;99.90
5278;DHT22;2662;51.194;6.614;2024-02-28T11:09:29;11.30;99.90
5278;DHT22;2662;51.194;6.614;2024-02-28T11:12:00;11.40;99.90
5278;DHT22;2662;51.194;6.614;2024-02-28T11:14:32;11.40;99.90
5278;DHT22;2662;51.194;6.614;2024-02-28T11:17:02;11.40;99.90
5278;DHT22;2662;51.194;6.614;2024-02-28T11:19:32;11.50;99.90
5278;DHT22;2662;51.194;6.614;2024-02-28T11:22:01;11.50;99.90
5278;DHT22;2662;51.194;6.614;2024-02-28T11:24:30;11.50;99.90
5278;DHT22;2662;51.194;6.614;2024-02-28T11:26:57;11.50;99.90
5278;DHT22;2662;51.194;6.614;2024-02-28T11:29:25;11.60;99.90
5278;DHT22;2662;51.194;6.614;2024-02-28T11:31:59;11.80;99.90
5278;DHT22;2662;51.194;6.614;2024-02-28T11:34:25;11.90;99.90
5278;DHT22;2662;51.194;6.614;2024-02-28T11:36:53;12.00;99.90
5278;DHT22;2662;51.194;6.614;2024-02-28T11:39:22;12.10;99.90
5278;DHT22;2662;51.194;6.614;2024-02-28T11:41:50;12.10;99.90
5278;DHT22;2662;51.194;6.614;2024-02-28T11:44:21;12.10;99.90
5278;DHT22;2662;51.194;6.614;2024-02-28T11:46:49;12.20;99.90
5278;DHT22;2662;51.194;6.614;2024-02-28T11:49:21;12.30;99.90
5278;DHT22;2662;51.194;6.614;2024-02-28T11:51:48;12.30;99.90
5278;DHT22;2662;51.194;6.614;2024-02-28T11:54:16;12.30;99.90
5278;DHT22;2662;51.194;6.614;2024-02-28T11:56:43;12.10;99.90
5278;DHT22;2662;51.194;6.614;2024-02-28T11:59:16;12.10;99.90
5278;DHT22;2662;51.194;6.614;2024-02-28T12:01:43;12.30;99.90
5278;DHT22;2662;51.194;6.614;2024-02-28T12:04:12;12.10;99.90
5278;DHT22;2662;51.194;6.614;2024-02-28T12:06:40;11.90;99.90
5278;DHT22;2662;51.194;6.614;2024-02-28T12:09:12;12.00;99.90
5278;DHT22;2662;51.194;6.614;2024-02-28T12:11:40;12.00;99.90
5278;DHT22;2662;51.194;6.614;2024-02-28T12:14:08;12.10;99.90
5278;DHT22;2662;51.194;6.614;2024-02-28T12:16:39;12.20;99.90
5278;DHT22;2662;51.194;6.614;2024-02-28T12:19:08;12.00;99.90
5278;DHT22;2662;51.194;6.614;2024-02-28T12:21:36;12.00;99.90
5278;DHT22;2662;51.194;6.614;2024-02-28T12:24:07;12.00;99.90
5278;DHT22;2662;51.194;6.614;2024-02-28T12:26:35;12.00;99.90
5278;DHT22;2662;51.194;6.614;2024-02-28T12:29:03;12.10;99.90
5278;DHT22;2662;51.194;6.614;2024-02-28T12:31:32;12.10;99.90
5278;DHT22;2662;51.194;6.614;2024-02-28T12:33:59;12.10;99.90
5278;DHT22;2662;51.194;6.614;2024-02-28T12:36:29;12.20;99.90
5278;DHT22;2662;51.194;6.614;2024-02-28T12:38:57;12.20;99.90
5278;DHT22;2662;51.194;6.614;2024-02-28T12:41:27;12.10;99.90
5278;DHT22;2662;51.194;6.614;2024-02-28T12:43:56;12.00;99.90
5278;DHT22;2662;51.194;6.614;2024-02-28T12:46:23;12.20;99.90
5278;DHT22;2662;51.194;6.614;2024-02-28T12:48:50;12.30;99.90
5278;DHT22;2662;51.194;6.614;2024-02-28T12:51:35;12.40;99.90
5278;DHT22;2662;51.194;6.614;2024-02-28T12:54:03;12.50;99.90
5278;DHT22;2662;51.194;6.614;2024-02-28T12:56:33;12.50;99.90
5278;DHT22;2662;51.194;6.614;2024-02-28T12:59:00;12.60;99.90
5278;DHT22;2662;51.194;6.614;2024-02-28T13:01:28;12.70;99.90
5278;DHT22;2662;51.194;6.614;2024-02-28T13:03:56;12.80;99.90
5278;DHT22;2662;51.194;6.614;2024-02-28T13:06:23;12.90;99.90
5278;DHT22;2662;51.194;6.614;2024-02-28T13:08:50;12.90;99.90
5278;DHT22;2662;51.194;6.614;2024-02-28T13:11:24;12.90;99.90
5278;DHT22;2662;51.194;6.614;2024-02-28T13:13:53;13.00;99.90
5278;DHT22;2662;51.194;6.614;2024-02-28T13:16:20;12.90;99.90
5278;DHT22;2662;51.194;6.614;2024-02-28T13:18:48;12.90;99.90
5278;DHT22;2662;51.194;6.614;2024-02-28T13:21:16;13.10;99.90
5278;DHT22;2662;51.194;6.614;2024-02-28T13:23:44;13.30;99.90
5278;DHT22;2662;51.194;6.614;2024-02-28T13:26:11;13.40;99.90
5278;DHT22;2662;51.194;6.614;2024-02-28T13:28:47;13.20;99.90
5278;DHT22;2662;51.194;6.614;2024-02-28T13:31:15;13.10;99.90
5278;DHT22;2662;51.194;6.614;2024-02-28T13:33:42;13.30;99.90
5278;DHT22;2662;51.194;6.614;2024-02-28T13:36:11;13.30;99.90
5278;DHT22;2662;51.194;6.614;2024-02-28T13:38:42;13.20;99.90
5278;DHT22;2662;51.194;6.614;2024-02-28T13:41:09;13.20;99.90
5278;DHT22;2662;51.194;6.614;2024-02-28T13:43:36;13.30;99.90
5278;DHT22;2662;51.194;6.614;2024-02-28T13:46:04;13.30;99.90
5278;DHT22;2662;51.194;6.614;2024-02-28T13:48:33;13.30;99.90
5278;DHT22;2662;51.194;6.614;2024-02-28T13:51:02;13.30;99.90
5278;DHT22;2662;51.194;6.614;2024-02-28T13:53:29;13.40;99.90
5278;DHT22;2662;51.194;6.614;2024-02-28T13:55:56;13.30;99.90
5278;DHT22;2662;51.194;6.614;2024-02-28T13:58:23;13.40;99.90
5278;DHT22;2662;51.194;6.614;2024-02-28T14:00:50;13.40;99.90
5278;DHT22;2662;51.194;6.614;2024-02-28T14:03:18;13.50;99.90
5278;DHT22;2662;51.194;6.614;2024-02-28T14:05:46;13.50;99.90
5278;DHT22;2662;51.194;6.614;2024-02-28T14:08:13;13.60;99.90
5278;DHT22;2662;51.194;6.614;2024-02-28T14:10:40;13.70;99.90
5278;DHT22;2662;51.194;6.614;2024-02-28T14:13:07;13.60;99.90
5278;DHT22;2662;51.194;6.614;2024-02-28T14:15:35;13.60;99.90
5278;DHT22;2662;51.194;6.614;2024-02-28T14:18:05;13.70;99.90
5278;DHT22;2662;51.194;6.614;2024-02-28T14:20:33;13.90;99.90
5278;DHT22;2662;51.194;6.614;2024-02-28T14:23:03;13.90;99.90
5278;DHT22;2662;51.194;6.614;2024-02-28T14:25:32;13.90;99.90
5278;DHT22;2662;51.194;6.614;2024-02-28T14:28:02;13.90;99.90
5278;DHT22;2662;51.194;6.614;2024-02-28T14:30:30;13.90;99.90
5278;DHT22;2662;51.194;6.614;2024-02-28T14:33:01;13.90;99.90
5278;DHT22;2662;51.194;6.614;2024-02-28T14:35:28;14.00;99.90
5278;DHT22;2662;51.194;6.614;2024-02-28T14:37:56;14.10;99.90
5278;DHT22;2662;51.194;6.614;2024-02-28T14:40:24;14.00;99.90
5278;DHT22;2662;51.194;6.614;2024-02-28T14:42:52;13.80;99.90
5278;DHT22;2662;51.194;6.614;2024-02-28T14:45:19;13.70;99.90
5278;DHT22;2662;51.194;6.614;2024-02-28T14:47:46;13.70;99.90
5278;DHT22;2662;51.194;6.614;2024-02-28T14:50:13;13.70;99.90
5278;DHT22;2662;51.194;6.614;2024-02-28T14:52:41;13.70;99.90
5278;DHT22;2662;51.194;6.614;2024-02-28T14:55:10;13.70;99.90
5278;DHT22;2662;51.194;6.614;2024-02-28T14:57:39;13.70;99.90
5278;DHT22;2662;51.194;6.614;2024-02-28T15:00:09;13.70;99.90
5278;DHT22;2662;51.194;6.614;2024-02-28T15:02:39;13.60;99.90
5278;DHT22;2662;51.194;6.614;2024-02-28T15:05:07;13.50;99.90
5278;DHT22;2662;51.194;6.614;2024-02-28T15:07:36;13.50;99.90
5278;DHT22;2662;51.194;6.614;2024-02-28T15:10:06;13.40;99.90
5278;DHT22;2662;51.194;6.614;2024-02-28T15:12:34;13.40;99.90
5278;DHT22;2662;51.194;6.614;2024-02-28T15:15:05;13.40;99.90
5278;DHT22;2662;51.194;6.614;2024-02-28T15:17:33;13.40;99.90
5278;DHT22;2662;51.194;6.614;2024-02-28T15:20:00;13.40;99.90
5278;DHT22;2662;51.194;6.614;2024-02-28T15:22:30;13.40;99.90
5278;DHT22;2662;51.194;6.614;2024-02-28T15:24:59;13.50;99.90
5278;DHT22;2662;51.194;6.614;2024-02-28T15:27:26;13.50;99.90
5278;DHT22;2662;51.194;6.614;2024-02-28T15:29:55;13.30;99.90
5278;DHT22;2662;51.194;6.614;2024-02-28T15:32:23;13.20;99.90
5278;DHT22;2662;51.194;6.614;2024-02-28T15:34:50;13.20;99.90
5278;DHT22;2662;51.194;6.614;2024-02-28T15:37:21;13.20;99.90
5278;DHT22;2662;51.194;6.614;2024-02-28T15:39:48;13.10;99.90
5278;DHT22;2662;51.194;6.614;2024-02-28T15:42:16;13.20;99.90
5278;DHT22;2662;51.194;6.614;2024-02-28T15:44:44;13.10;99.90
5278;DHT22;2662;51.194;6.614;2024-02-28T15:47:11;12.90;99.90
5278;DHT22;2662;51.194;6.614;2024-02-28T15:49:39;12.80;99.90
5278;DHT22;2662;51.194;6.614;2024-02-28T15:52:08;12.80;99.90
5278;DHT22;2662;51.194;6.614;2024-02-28T15:54:38;12.70;99.90
5278;DHT22;2662;51.194;6.614;2024-02-28T15:57:05;12.60;99.90
5278;DHT22;2662;51.194;6.614;2024-02-28T15:59:35;12.50;99.90
5278;DHT22;2662;51.194;6.614;2024-02-28T16:02:05;12.40;99.90
5278;DHT22;2662;51.194;6.614;2024-02-28T16:04:34;12.40;99.90
5278;DHT22;2662;51.194;6.614;2024-02-28T16:07:02;12.30;99.90
5278;DHT22;2662;51.194;6.614;2024-02-28T16:09:33;12.20;99.90
5278;DHT22;2662;51.194;6.614;2024-02-28T16:12:07;12.20;99.90
5278;DHT22;2662;51.194;6.614;2024-02-28T16:14:38;12.20;99.90
5278;DHT22;2662;51.194;6.614;2024-02-28T16:17:07;12.10;99.90